Terminal Aerodrome Forecast
Issued by NWS

Home | Current Version | Previous Version | Text Only | Print | Product List | Glossary On
Versions: 1 2 3 4 5 6 7 8 9 10 11 12 13 14
000
FTUS43 KMQT 231700
TAFIWD
TAF
KIWD 231733Z 2318/2418 11007KT P6SM BKN200
     FM241000 15009KT P6SM -RA OVC060
     FM241600 14010G18KT 3SM -RASN OVC020
      AMD LTD TO CLD VIS AND WIND=

USA.gov is the U.S. government's official web portal to all federal, state and local government web resources and services.